sensor_id;sensor_type;location;lat;lon;timestamp;temperature;humidity
80274;DHT22;69576;51.902;-8.462;2024-01-15T00:00:41;9.50;72.10
80274;DHT22;69576;51.902;-8.462;2024-01-15T00:03:07;9.50;72.40
80274;DHT22;69576;51.902;-8.462;2024-01-15T00:05:32;9.50;72.10
80274;DHT22;69576;51.902;-8.462;2024-01-15T00:07:58;9.50;72.80
80274;DHT22;69576;51.902;-8.462;2024-01-15T00:10:26;9.50;72.20
80274;DHT22;69576;51.902;-8.462;2024-01-15T00:12:55;9.50;72.30
80274;DHT22;69576;51.902;-8.462;2024-01-15T00:15:23;9.50;72.30
80274;DHT22;69576;51.902;-8.462;2024-01-15T00:17:54;9.50;73.00
80274;DHT22;69576;51.902;-8.462;2024-01-15T00:20:22;9.50;72.70
80274;DHT22;69576;51.902;-8.462;2024-01-15T00:22:50;9.40;72.50
80274;DHT22;69576;51.902;-8.462;2024-01-15T00:25:16;9.40;72.60
80274;DHT22;69576;51.902;-8.462;2024-01-15T00:27:42;9.40;72.20
80274;DHT22;69576;51.902;-8.462;2024-01-15T00:30:10;9.40;72.30
80274;DHT22;69576;51.902;-8.462;2024-01-15T00:32:40;9.40;72.30
80274;DHT22;69576;51.902;-8.462;2024-01-15T00:35:13;9.40;72.50
80274;DHT22;69576;51.902;-8.462;2024-01-15T00:37:38;9.40;72.80
80274;DHT22;69576;51.902;-8.462;2024-01-15T00:40:08;9.40;72.50
80274;DHT22;69576;51.902;-8.462;2024-01-15T00:42:39;9.30;72.30
80274;DHT22;69576;51.902;-8.462;2024-01-15T00:45:08;9.30;72.20
80274;DHT22;69576;51.902;-8.462;2024-01-15T00:47:36;9.20;71.90
80274;DHT22;69576;51.902;-8.462;2024-01-15T00:50:07;9.20;72.40
80274;DHT22;69576;51.902;-8.462;2024-01-15T00:52:36;9.20;72.20
80274;DHT22;69576;51.902;-8.462;2024-01-15T00:55:04;9.20;72.30
80274;DHT22;69576;51.902;-8.462;2024-01-15T00:57:34;9.20;72.30
80274;DHT22;69576;51.902;-8.462;2024-01-15T01:00:06;9.20;72.20
80274;DHT22;69576;51.902;-8.462;2024-01-15T01:02:32;9.20;72.40
80274;DHT22;69576;51.902;-8.462;2024-01-15T01:05:01;9.20;72.50
80274;DHT22;69576;51.902;-8.462;2024-01-15T01:07:29;9.20;72.10
80274;DHT22;69576;51.902;-8.462;2024-01-15T01:09:55;9.20;72.30
80274;DHT22;69576;51.902;-8.462;2024-01-15T01:12:21;9.20;72.30
80274;DHT22;69576;51.902;-8.462;2024-01-15T01:14:51;9.20;72.10
80274;DHT22;69576;51.902;-8.462;2024-01-15T01:17:19;9.10;72.30
80274;DHT22;69576;51.902;-8.462;2024-01-15T01:19:45;9.10;72.60
80274;DHT22;69576;51.902;-8.462;2024-01-15T01:22:13;9.00;72.50
80274;DHT22;69576;51.902;-8.462;2024-01-15T01:24:41;9.10;72.50
80274;DHT22;69576;51.902;-8.462;2024-01-15T01:27:09;9.10;72.20
80274;DHT22;69576;51.902;-8.462;2024-01-15T01:29:35;9.00;72.60
80274;DHT22;69576;51.902;-8.462;2024-01-15T01:32:03;9.10;72.90
80274;DHT22;69576;51.902;-8.462;2024-01-15T01:34:29;9.00;72.80
80274;DHT22;69576;51.902;-8.462;2024-01-15T01:36:55;9.00;72.60
80274;DHT22;69576;51.902;-8.462;2024-01-15T01:39:21;9.00;73.00
80274;DHT22;69576;51.902;-8.462;2024-01-15T01:41:47;9.00;72.90
80274;DHT22;69576;51.902;-8.462;2024-01-15T01:44:15;9.00;72.50
80274;DHT22;69576;51.902;-8.462;2024-01-15T01:46:43;9.00;72.40
80274;DHT22;69576;51.902;-8.462;2024-01-15T01:49:09;9.00;72.10
80274;DHT22;69576;51.902;-8.462;2024-01-15T01:51:35;9.00;72.50
80274;DHT22;69576;51.902;-8.462;2024-01-15T01:54:03;9.00;72.10
80274;DHT22;69576;51.902;-8.462;2024-01-15T01:56:35;9.00;72.10
80274;DHT22;69576;51.902;-8.462;2024-01-15T01:59:02;8.90;71.70
80274;DHT22;69576;51.902;-8.462;2024-01-15T02:01:29;8.90;72.10
80274;DHT22;69576;51.902;-8.462;2024-01-15T02:03:57;8.90;71.90
80274;DHT22;69576;51.902;-8.462;2024-01-15T02:06:28;8.90;71.80
80274;DHT22;69576;51.902;-8.462;2024-01-15T02:08:56;8.90;72.10
80274;DHT22;69576;51.902;-8.462;2024-01-15T02:11:22;8.90;71.70
80274;DHT22;69576;51.902;-8.462;2024-01-15T02:13:49;8.80;71.50
80274;DHT22;69576;51.902;-8.462;2024-01-15T02:16:17;8.80;71.60
80274;DHT22;69576;51.902;-8.462;2024-01-15T02:18:46;8.80;71.80
80274;DHT22;69576;51.902;-8.462;2024-01-15T02:21:12;8.80;72.00
80274;DHT22;69576;51.902;-8.462;2024-01-15T02:23:38;8.80;72.20
80274;DHT22;69576;51.902;-8.462;2024-01-15T02:26:09;8.80;71.60
80274;DHT22;69576;51.902;-8.462;2024-01-15T02:28:37;8.80;71.80
80274;DHT22;69576;51.902;-8.462;2024-01-15T02:31:07;8.80;72.00
80274;DHT22;69576;51.902;-8.462;2024-01-15T02:33:35;8.80;72.10
80274;DHT22;69576;51.902;-8.462;2024-01-15T02:36:05;8.80;71.90
80274;DHT22;69576;51.902;-8.462;2024-01-15T02:38:34;8.80;72.50
80274;DHT22;69576;51.902;-8.462;2024-01-15T02:41:00;8.80;71.80
80274;DHT22;69576;51.902;-8.462;2024-01-15T02:43:28;8.80;72.50
80274;DHT22;69576;51.902;-8.462;2024-01-15T02:45:56;8.70;72.10
80274;DHT22;69576;51.902;-8.462;2024-01-15T02:48:22;8.70;72.10
80274;DHT22;69576;51.902;-8.462;2024-01-15T02:50:48;8.60;71.80
80274;DHT22;69576;51.902;-8.462;2024-01-15T02:53:13;8.70;72.10
80274;DHT22;69576;51.902;-8.462;2024-01-15T02:55:44;8.60;71.40
80274;DHT22;69576;51.902;-8.462;2024-01-15T02:58:14;8.70;72.30
80274;DHT22;69576;51.902;-8.462;2024-01-15T03:00:40;8.70;72.20
80274;DHT22;69576;51.902;-8.462;2024-01-15T03:03:08;8.70;72.50
80274;DHT22;69576;51.902;-8.462;2024-01-15T03:05:34;8.80;72.80
80274;DHT22;69576;51.902;-8.462;2024-01-15T03:08:00;8.80;72.40
80274;DHT22;69576;51.902;-8.462;2024-01-15T03:10:25;8.80;72.20
80274;DHT22;69576;51.902;-8.462;2024-01-15T03:12:51;8.80;72.50
80274;DHT22;69576;51.902;-8.462;2024-01-15T03:15:19;8.80;72.60
80274;DHT22;69576;51.902;-8.462;2024-01-15T03:17:47;8.80;72.50
80274;DHT22;69576;51.902;-8.462;2024-01-15T03:20:15;8.90;72.50
80274;DHT22;69576;51.902;-8.462;2024-01-15T03:22:43;8.90;72.80
80274;DHT22;69576;51.902;-8.462;2024-01-15T03:25:11;8.90;73.20
80274;DHT22;69576;51.902;-8.462;2024-01-15T03:27:39;8.90;72.50
80274;DHT22;69576;51.902;-8.462;2024-01-15T03:30:06;8.90;72.70
80274;DHT22;69576;51.902;-8.462;2024-01-15T03:32:36;8.90;73.00
80274;DHT22;69576;51.902;-8.462;2024-01-15T03:35:05;8.90;72.50
80274;DHT22;69576;51.902;-8.462;2024-01-15T03:37:31;8.90;72.00
80274;DHT22;69576;51.902;-8.462;2024-01-15T03:39:56;8.90;72.20
80274;DHT22;69576;51.902;-8.462;2024-01-15T03:42:26;8.90;72.70
80274;DHT22;69576;51.902;-8.462;2024-01-15T03:44:52;8.90;72.50
80274;DHT22;69576;51.902;-8.462;2024-01-15T03:47:18;8.90;72.60
80274;DHT22;69576;51.902;-8.462;2024-01-15T03:49:46;8.90;72.00
80274;DHT22;69576;51.902;-8.462;2024-01-15T03:52:12;8.90;72.20
80274;DHT22;69576;51.902;-8.462;2024-01-15T03:54:40;8.90;72.20
80274;DHT22;69576;51.902;-8.462;2024-01-15T03:57:08;8.90;72.30
80274;DHT22;69576;51.902;-8.462;2024-01-15T03:59:37;8.90;72.10
80274;DHT22;69576;51.902;-8.462;2024-01-15T04:02:02;8.90;72.20
80274;DHT22;69576;51.902;-8.462;2024-01-15T04:04:29;8.90;72.00
80274;DHT22;69576;51.902;-8.462;2024-01-15T04:06:55;8.90;72.10
80274;DHT22;69576;51.902;-8.462;2024-01-15T04:09:23;8.90;72.10
80274;DHT22;69576;51.902;-8.462;2024-01-15T04:11:53;8.90;72.20
80274;DHT22;69576;51.902;-8.462;2024-01-15T04:14:23;8.90;71.70
80274;DHT22;69576;51.902;-8.462;2024-01-15T04:16:51;8.90;72.10
80274;DHT22;69576;51.902;-8.462;2024-01-15T04:19:19;8.90;71.60
80274;DHT22;69576;51.902;-8.462;2024-01-15T04:21:52;8.90;71.90
80274;DHT22;69576;51.902;-8.462;2024-01-15T04:24:18;8.80;71.90
80274;DHT22;69576;51.902;-8.462;2024-01-15T04:26:44;8.80;72.50
80274;DHT22;69576;51.902;-8.462;2024-01-15T04:29:12;8.80;72.00
80274;DHT22;69576;51.902;-8.462;2024-01-15T04:31:42;8.80;72.20
80274;DHT22;69576;51.902;-8.462;2024-01-15T04:34:10;8.80;71.90
80274;DHT22;69576;51.902;-8.462;2024-01-15T04:36:41;8.80;71.70
80274;DHT22;69576;51.902;-8.462;2024-01-15T04:39:07;8.70;71.80
80274;DHT22;69576;51.902;-8.462;2024-01-15T04:41:36;8.70;72.00
80274;DHT22;69576;51.902;-8.462;2024-01-15T04:44:01;8.70;71.90
80274;DHT22;69576;51.902;-8.462;2024-01-15T04:46:27;8.60;72.00
80274;DHT22;69576;51.902;-8.462;2024-01-15T04:48:53;8.60;72.10
80274;DHT22;69576;51.902;-8.462;2024-01-15T04:51:19;8.60;72.30
80274;DHT22;69576;51.902;-8.462;2024-01-15T04:53:49;8.60;72.20
80274;DHT22;69576;51.902;-8.462;2024-01-15T04:56:15;8.60;72.30
80274;DHT22;69576;51.902;-8.462;2024-01-15T04:58:41;8.60;72.40
80274;DHT22;69576;51.902;-8.462;2024-01-15T05:01:11;8.60;72.40
80274;DHT22;69576;51.902;-8.462;2024-01-15T05:03:39;8.60;72.40
80274;DHT22;69576;51.902;-8.462;2024-01-15T05:06:05;8.60;72.20
80274;DHT22;69576;51.902;-8.462;2024-01-15T05:08:31;8.60;72.30
80274;DHT22;69576;51.902;-8.462;2024-01-15T05:11:01;8.60;72.10
80274;DHT22;69576;51.902;-8.462;2024-01-15T05:13:30;8.50;72.50
80274;DHT22;69576;51.902;-8.462;2024-01-15T05:16:00;8.60;72.50
80274;DHT22;69576;51.902;-8.462;2024-01-15T05:18:26;8.60;72.50
80274;DHT22;69576;51.902;-8.462;2024-01-15T05:20:54;8.50;72.50
80274;DHT22;69576;51.902;-8.462;2024-01-15T05:23:22;8.50;72.60
80274;DHT22;69576;51.902;-8.462;2024-01-15T05:25:54;8.50;72.20
80274;DHT22;69576;51.902;-8.462;2024-01-15T05:28:22;8.50;72.40
80274;DHT22;69576;51.902;-8.462;2024-01-15T05:30:48;8.50;72.40
80274;DHT22;69576;51.902;-8.462;2024-01-15T05:33:16;8.50;72.40
80274;DHT22;69576;51.902;-8.462;2024-01-15T05:35:42;8.50;72.40
80274;DHT22;69576;51.902;-8.462;2024-01-15T05:38:08;8.40;72.50
80274;DHT22;69576;51.902;-8.462;2024-01-15T05:40:34;8.50;72.70
80274;DHT22;69576;51.902;-8.462;2024-01-15T05:42:59;8.50;72.50
80274;DHT22;69576;51.902;-8.462;2024-01-15T05:45:29;8.40;72.30
80274;DHT22;69576;51.902;-8.462;2024-01-15T05:47:55;8.40;72.60
80274;DHT22;69576;51.902;-8.462;2024-01-15T05:50:21;8.40;72.60
80274;DHT22;69576;51.902;-8.462;2024-01-15T05:52:48;8.40;72.90
80274;DHT22;69576;51.902;-8.462;2024-01-15T05:55:16;8.40;72.80
80274;DHT22;69576;51.902;-8.462;2024-01-15T05:57:46;8.40;72.60
80274;DHT22;69576;51.902;-8.462;2024-01-15T06:00:15;8.40;72.70
80274;DHT22;69576;51.902;-8.462;2024-01-15T06:02:40;8.40;72.80
80274;DHT22;69576;51.902;-8.462;2024-01-15T06:05:06;8.40;73.90
80274;DHT22;69576;51.902;-8.462;2024-01-15T06:07:35;8.50;73.80
80274;DHT22;69576;51.902;-8.462;2024-01-15T06:10:01;8.40;73.30
80274;DHT22;69576;51.902;-8.462;2024-01-15T06:12:33;8.40;73.30
80274;DHT22;69576;51.902;-8.462;2024-01-15T06:15:03;8.40;73.20
80274;DHT22;69576;51.902;-8.462;2024-01-15T06:17:29;8.40;73.40
80274;DHT22;69576;51.902;-8.462;2024-01-15T06:19:55;8.40;73.20
80274;DHT22;69576;51.902;-8.462;2024-01-15T06:22:23;8.40;73.00
80274;DHT22;69576;51.902;-8.462;2024-01-15T06:24:51;8.40;73.00
80274;DHT22;69576;51.902;-8.462;2024-01-15T06:27:17;8.40;73.20
80274;DHT22;69576;51.902;-8.462;2024-01-15T06:29:45;8.30;73.00
80274;DHT22;69576;51.902;-8.462;2024-01-15T06:32:16;8.30;73.00
80274;DHT22;69576;51.902;-8.462;2024-01-15T06:34:49;8.30;73.00
80274;DHT22;69576;51.902;-8.462;2024-01-15T06:37:17;8.30;72.90
80274;DHT22;69576;51.902;-8.462;2024-01-15T06:39:48;8.30;73.40
80274;DHT22;69576;51.902;-8.462;2024-01-15T06:42:16;8.30;72.90
80274;DHT22;69576;51.902;-8.462;2024-01-15T06:44:44;8.30;72.80
80274;DHT22;69576;51.902;-8.462;2024-01-15T06:47:10;8.30;72.50
80274;DHT22;69576;51.902;-8.462;2024-01-15T06:49:40;8.30;72.40
80274;DHT22;69576;51.902;-8.462;2024-01-15T06:52:06;8.30;72.60
80274;DHT22;69576;51.902;-8.462;2024-01-15T06:54:32;8.30;72.40
80274;DHT22;69576;51.902;-8.462;2024-01-15T06:56:57;8.30;72.40
80274;DHT22;69576;51.902;-8.462;2024-01-15T06:59:23;8.30;72.70
80274;DHT22;69576;51.902;-8.462;2024-01-15T07:01:51;8.30;72.60
80274;DHT22;69576;51.902;-8.462;2024-01-15T07:04:17;8.30;72.60
80274;DHT22;69576;51.902;-8.462;2024-01-15T07:06:45;8.30;72.50
80274;DHT22;69576;51.902;-8.462;2024-01-15T07:09:13;8.30;72.50
80274;DHT22;69576;51.902;-8.462;2024-01-15T07:11:44;8.30;72.50
80274;DHT22;69576;51.902;-8.462;2024-01-15T07:14:15;8.40;72.50
80274;DHT22;69576;51.902;-8.462;2024-01-15T07:16:44;8.40;72.50
80274;DHT22;69576;51.902;-8.462;2024-01-15T07:19:10;8.40;72.70
80274;DHT22;69576;51.902;-8.462;2024-01-15T07:21:38;8.50;74.00
80274;DHT22;69576;51.902;-8.462;2024-01-15T07:24:07;8.60;74.80
80274;DHT22;69576;51.902;-8.462;2024-01-15T07:26:35;8.70;74.20
80274;DHT22;69576;51.902;-8.462;2024-01-15T07:29:01;8.80;73.90
80274;DHT22;69576;51.902;-8.462;2024-01-15T07:31:28;8.90;73.80
80274;DHT22;69576;51.902;-8.462;2024-01-15T07:33:54;9.00;74.00
80274;DHT22;69576;51.902;-8.462;2024-01-15T07:36:22;9.00;73.90
80274;DHT22;69576;51.902;-8.462;2024-01-15T07:38:50;9.40;74.40
80274;DHT22;69576;51.902;-8.462;2024-01-15T07:41:16;9.70;74.10
80274;DHT22;69576;51.902;-8.462;2024-01-15T07:43:44;10.00;73.60
80274;DHT22;69576;51.902;-8.462;2024-01-15T07:46:16;10.20;72.70
80274;DHT22;69576;51.902;-8.462;2024-01-15T07:48:42;10.60;72.00
80274;DHT22;69576;51.902;-8.462;2024-01-15T07:51:08;10.80;71.70
80274;DHT22;69576;51.902;-8.462;2024-01-15T07:53:37;10.90;70.90
80274;DHT22;69576;51.902;-8.462;2024-01-15T07:56:05;10.90;69.70
80274;DHT22;69576;51.902;-8.462;2024-01-15T07:58:31;10.70;69.50
80274;DHT22;69576;51.902;-8.462;2024-01-15T08:00:59;10.70;69.40
80274;DHT22;69576;51.902;-8.462;2024-01-15T08:03:27;10.50;69.50
80274;DHT22;69576;51.902;-8.462;2024-01-15T08:05:53;10.40;69.60
80274;DHT22;69576;51.902;-8.462;2024-01-15T08:08:19;10.30;68.40
80274;DHT22;69576;51.902;-8.462;2024-01-15T08:10:47;10.20;67.40
80274;DHT22;69576;51.902;-8.462;2024-01-15T08:13:12;10.10;67.70
80274;DHT22;69576;51.902;-8.462;2024-01-15T08:15:41;10.00;67.70
80274;DHT22;69576;51.902;-8.462;2024-01-15T08:18:09;10.00;68.30
80274;DHT22;69576;51.902;-8.462;2024-01-15T08:20:37;9.90;68.10
80274;DHT22;69576;51.902;-8.462;2024-01-15T08:23:04;9.80;68.50
80274;DHT22;69576;51.902;-8.462;2024-01-15T08:25:32;9.70;69.00
80274;DHT22;69576;51.902;-8.462;2024-01-15T08:28:00;9.70;68.90
80274;DHT22;69576;51.902;-8.462;2024-01-15T08:30:28;9.70;68.90
80274;DHT22;69576;51.902;-8.462;2024-01-15T08:32:59;9.70;69.70
80274;DHT22;69576;51.902;-8.462;2024-01-15T08:35:25;9.70;70.00
80274;DHT22;69576;51.902;-8.462;2024-01-15T08:37:54;9.60;69.00
80274;DHT22;69576;51.902;-8.462;2024-01-15T08:40:20;9.60;69.00
80274;DHT22;69576;51.902;-8.462;2024-01-15T08:42:46;9.60;68.80
80274;DHT22;69576;51.902;-8.462;2024-01-15T08:45:12;9.60;69.40
80274;DHT22;69576;51.902;-8.462;2024-01-15T08:47:38;9.60;69.20
80274;DHT22;69576;51.902;-8.462;2024-01-15T08:50:07;9.50;69.10
80274;DHT22;69576;51.902;-8.462;2024-01-15T08:52:36;9.50;69.40
80274;DHT22;69576;51.902;-8.462;2024-01-15T08:55:04;9.50;69.20
80274;DHT22;69576;51.902;-8.462;2024-01-15T08:57:35;9.40;69.00
80274;DHT22;69576;51.902;-8.462;2024-01-15T09:00:04;9.40;69.20
80274;DHT22;69576;51.902;-8.462;2024-01-15T09:02:34;9.40;69.40
80274;DHT22;69576;51.902;-8.462;2024-01-15T09:05:00;9.40;69.20
80274;DHT22;69576;51.902;-8.462;2024-01-15T09:07:26;9.40;68.70
80274;DHT22;69576;51.902;-8.462;2024-01-15T09:09:52;9.40;69.10
80274;DHT22;69576;51.902;-8.462;2024-01-15T09:12:19;9.40;68.80
80274;DHT22;69576;51.902;-8.462;2024-01-15T09:14:46;9.40;69.10
80274;DHT22;69576;51.902;-8.462;2024-01-15T09:17:13;9.30;69.00
80274;DHT22;69576;51.902;-8.462;2024-01-15T09:19:38;9.30;69.10
80274;DHT22;69576;51.902;-8.462;2024-01-15T09:22:08;9.30;68.90
80274;DHT22;69576;51.902;-8.462;2024-01-15T09:24:36;9.30;69.00
80274;DHT22;69576;51.902;-8.462;2024-01-15T09:27:04;9.30;69.50
80274;DHT22;69576;51.902;-8.462;2024-01-15T09:29:30;9.30;69.30
80274;DHT22;69576;51.902;-8.462;2024-01-15T09:31:57;9.30;69.20
80274;DHT22;69576;51.902;-8.462;2024-01-15T09:34:22;9.30;69.40
80274;DHT22;69576;51.902;-8.462;2024-01-15T09:36:48;9.40;69.30
80274;DHT22;69576;51.902;-8.462;2024-01-15T09:39:14;9.40;69.20
80274;DHT22;69576;51.902;-8.462;2024-01-15T09:41:41;9.40;69.60
80274;DHT22;69576;51.902;-8.462;2024-01-15T09:44:07;9.50;69.00
80274;DHT22;69576;51.902;-8.462;2024-01-15T09:46:34;9.50;69.50
80274;DHT22;69576;51.902;-8.462;2024-01-15T09:49:00;9.60;69.60
80274;DHT22;69576;51.902;-8.462;2024-01-15T09:51:30;9.70;69.70
80274;DHT22;69576;51.902;-8.462;2024-01-15T09:53:57;9.70;69.50
80274;DHT22;69576;51.902;-8.462;2024-01-15T09:56:24;9.70;69.10
80274;DHT22;69576;51.902;-8.462;2024-01-15T09:58:55;9.70;69.10
80274;DHT22;69576;51.902;-8.462;2024-01-15T10:01:23;9.80;68.80
80274;DHT22;69576;51.902;-8.462;2024-01-15T10:03:50;9.80;68.90
80274;DHT22;69576;51.902;-8.462;2024-01-15T10:06:18;9.80;68.90
80274;DHT22;69576;51.902;-8.462;2024-01-15T10:08:51;9.90;68.70
80274;DHT22;69576;51.902;-8.462;2024-01-15T10:11:18;10.00;68.50
80274;DHT22;69576;51.902;-8.462;2024-01-15T10:13:43;10.00;68.60
80274;DHT22;69576;51.902;-8.462;2024-01-15T10:16:10;10.00;67.50
80274;DHT22;69576;51.902;-8.462;2024-01-15T10:18:36;10.00;67.10
80274;DHT22;69576;51.902;-8.462;2024-01-15T10:21:07;10.00;67.00
80274;DHT22;69576;51.902;-8.462;2024-01-15T10:23:33;10.10;67.00
80274;DHT22;69576;51.902;-8.462;2024-01-15T10:26:00;10.10;66.70
80274;DHT22;69576;51.902;-8.462;2024-01-15T10:28:29;10.20;66.70
80274;DHT22;69576;51.902;-8.462;2024-01-15T10:30:57;10.20;66.30
80274;DHT22;69576;51.902;-8.462;2024-01-15T10:33:24;10.20;66.20
80274;DHT22;69576;51.902;-8.462;2024-01-15T10:35:54;10.10;66.10
80274;DHT22;69576;51.902;-8.462;2024-01-15T10:38:24;10.10;65.60
80274;DHT22;69576;51.902;-8.462;2024-01-15T10:40:57;10.10;65.60
80274;DHT22;69576;51.902;-8.462;2024-01-15T10:43:23;10.00;65.30
80274;DHT22;69576;51.902;-8.462;2024-01-15T10:45:50;10.00;65.10
80274;DHT22;69576;51.902;-8.462;2024-01-15T10:48:19;10.00;66.40
80274;DHT22;69576;51.902;-8.462;2024-01-15T10:50:48;10.00;66.40
80274;DHT22;69576;51.902;-8.462;2024-01-15T10:53:19;10.00;66.70
80274;DHT22;69576;51.902;-8.462;2024-01-15T10:55:51;10.00;66.60
80274;DHT22;69576;51.902;-8.462;2024-01-15T10:58:20;10.00;66.50
80274;DHT22;69576;51.902;-8.462;2024-01-15T11:00:49;10.00;66.60
80274;DHT22;69576;51.902;-8.462;2024-01-15T11:03:15;10.00;66.80
80274;DHT22;69576;51.902;-8.462;2024-01-15T11:05:45;9.90;66.90
80274;DHT22;69576;51.902;-8.462;2024-01-15T11:08:11;9.90;67.20
80274;DHT22;69576;51.902;-8.462;2024-01-15T11:10:45;9.90;67.30
80274;DHT22;69576;51.902;-8.462;2024-01-15T11:16:06;10.00;68.10
80274;DHT22;69576;51.902;-8.462;2024-01-15T11:18:38;10.00;68.00
80274;DHT22;69576;51.902;-8.462;2024-01-15T11:23:52;10.00;68.30
80274;DHT22;69576;51.902;-8.462;2024-01-15T11:29:07;10.00;68.90
80274;DHT22;69576;51.902;-8.462;2024-01-15T11:34:06;10.00;68.20
80274;DHT22;69576;51.902;-8.462;2024-01-15T11:42:01;10.00;67.40
80274;DHT22;69576;51.902;-8.462;2024-01-15T11:44:31;10.00;68.50
80274;DHT22;69576;51.902;-8.462;2024-01-15T11:49:59;10.00;68.30
80274;DHT22;69576;51.902;-8.462;2024-01-15T11:52:35;10.00;68.20
80274;DHT22;69576;51.902;-8.462;2024-01-15T11:57:46;10.00;68.60
80274;DHT22;69576;51.902;-8.462;2024-01-15T12:00:18;10.00;69.40
80274;DHT22;69576;51.902;-8.462;2024-01-15T12:02:48;10.20;69.80
80274;DHT22;69576;51.902;-8.462;2024-01-15T12:05:18;10.20;67.60
80274;DHT22;69576;51.902;-8.462;2024-01-15T12:07:48;10.20;65.80
80274;DHT22;69576;51.902;-8.462;2024-01-15T12:10:20;10.20;64.70
80274;DHT22;69576;51.902;-8.462;2024-01-15T12:13:15;10.10;64.20
80274;DHT22;69576;51.902;-8.462;2024-01-15T12:15:46;10.10;63.40
80274;DHT22;69576;51.902;-8.462;2024-01-15T12:18:17;10.10;63.40
80274;DHT22;69576;51.902;-8.462;2024-01-15T12:20:46;10.20;64.30
80274;DHT22;69576;51.902;-8.462;2024-01-15T12:23:14;10.40;65.00
80274;DHT22;69576;51.902;-8.462;2024-01-15T12:25:41;10.50;65.00
80274;DHT22;69576;51.902;-8.462;2024-01-15T12:28:09;10.60;65.50
80274;DHT22;69576;51.902;-8.462;2024-01-15T12:30:38;10.70;65.50
80274;DHT22;69576;51.902;-8.462;2024-01-15T12:33:05;10.80;65.70
80274;DHT22;69576;51.902;-8.462;2024-01-15T12:35:32;10.90;66.00
80274;DHT22;69576;51.902;-8.462;2024-01-15T12:38:02;11.00;65.90
80274;DHT22;69576;51.902;-8.462;2024-01-15T12:40:28;11.10;65.80
80274;DHT22;69576;51.902;-8.462;2024-01-15T12:42:54;11.10;65.70
80274;DHT22;69576;51.902;-8.462;2024-01-15T12:45:20;11.30;65.90
80274;DHT22;69576;51.902;-8.462;2024-01-15T12:47:46;11.40;65.00
80274;DHT22;69576;51.902;-8.462;2024-01-15T12:50:16;11.50;65.50
80274;DHT22;69576;51.902;-8.462;2024-01-15T12:52:42;11.70;65.30
80274;DHT22;69576;51.902;-8.462;2024-01-15T12:55:10;11.70;65.50
80274;DHT22;69576;51.902;-8.462;2024-01-15T12:57:36;11.90;66.40
80274;DHT22;69576;51.902;-8.462;2024-01-15T13:00:03;12.10;66.10
80274;DHT22;69576;51.902;-8.462;2024-01-15T13:02:36;12.20;65.20
80274;DHT22;69576;51.902;-8.462;2024-01-15T13:05:03;12.30;64.80
80274;DHT22;69576;51.902;-8.462;2024-01-15T13:07:30;12.30;64.40
80274;DHT22;69576;51.902;-8.462;2024-01-15T13:09:55;12.50;64.40
80274;DHT22;69576;51.902;-8.462;2024-01-15T13:12:21;12.50;64.10
80274;DHT22;69576;51.902;-8.462;2024-01-15T13:14:48;12.50;64.40
80274;DHT22;69576;51.902;-8.462;2024-01-15T13:17:14;12.60;64.60
80274;DHT22;69576;51.902;-8.462;2024-01-15T13:19:44;12.80;64.60
80274;DHT22;69576;51.902;-8.462;2024-01-15T13:22:10;12.80;64.10
80274;DHT22;69576;51.902;-8.462;2024-01-15T13:24:39;13.00;64.20
80274;DHT22;69576;51.902;-8.462;2024-01-15T13:27:05;13.10;63.70
80274;DHT22;69576;51.902;-8.462;2024-01-15T13:29:33;13.10;64.30
80274;DHT22;69576;51.902;-8.462;2024-01-15T13:31:59;13.20;63.60
80274;DHT22;69576;51.902;-8.462;2024-01-15T13:34:25;13.30;63.00
80274;DHT22;69576;51.902;-8.462;2024-01-15T13:36:56;13.30;62.40
80274;DHT22;69576;51.902;-8.462;2024-01-15T13:39:25;13.30;63.60
80274;DHT22;69576;51.902;-8.462;2024-01-15T13:41:51;13.30;62.30
80274;DHT22;69576;51.902;-8.462;2024-01-15T13:44:17;13.50;64.10
80274;DHT22;69576;51.902;-8.462;2024-01-15T13:46:45;13.60;63.60
80274;DHT22;69576;51.902;-8.462;2024-01-15T13:49:10;13.70;63.00
80274;DHT22;69576;51.902;-8.462;2024-01-15T13:51:36;13.70;62.90
80274;DHT22;69576;51.902;-8.462;2024-01-15T13:54:05;13.60;62.30
80274;DHT22;69576;51.902;-8.462;2024-01-15T13:56:31;13.60;61.60
80274;DHT22;69576;51.902;-8.462;2024-01-15T13:59:01;13.60;62.70
80274;DHT22;69576;51.902;-8.462;2024-01-15T14:01:29;13.60;63.20
80274;DHT22;69576;51.902;-8.462;2024-01-15T14:03:57;13.60;62.40
80274;DHT22;69576;51.902;-8.462;2024-01-15T14:06:22;13.50;62.80
80274;DHT22;69576;51.902;-8.462;2024-01-15T14:08:52;13.50;62.30
80274;DHT22;69576;51.902;-8.462;2024-01-15T14:11:20;13.50;62.00
80274;DHT22;69576;51.902;-8.462;2024-01-15T14:13:45;13.50;61.80
80274;DHT22;69576;51.902;-8.462;2024-01-15T14:16:12;13.40;61.30
80274;DHT22;69576;51.902;-8.462;2024-01-15T14:18:38;13.40;62.60
80274;DHT22;69576;51.902;-8.462;2024-01-15T14:21:06;13.40;62.60
80274;DHT22;69576;51.902;-8.462;2024-01-15T14:23:39;13.40;63.30
80274;DHT22;69576;51.902;-8.462;2024-01-15T14:26:07;13.50;63.50
80274;DHT22;69576;51.902;-8.462;2024-01-15T14:28:33;13.50;63.50
80274;DHT22;69576;51.902;-8.462;2024-01-15T14:30:59;13.50;62.80
80274;DHT22;69576;51.902;-8.462;2024-01-15T14:33:26;13.50;63.00
80274;DHT22;69576;51.902;-8.462;2024-01-15T14:35:52;13.50;62.90
80274;DHT22;69576;51.902;-8.462;2024-01-15T14:38:18;13.50;62.80
80274;DHT22;69576;51.902;-8.462;2024-01-15T14:40:44;13.60;63.20
80274;DHT22;69576;51.902;-8.462;2024-01-15T14:43:10;13.60;62.90
80274;DHT22;69576;51.902;-8.462;2024-01-15T14:45:38;13.50;62.70
80274;DHT22;69576;51.902;-8.462;2024-01-15T14:48:04;13.50;62.70
80274;DHT22;69576;51.902;-8.462;2024-01-15T14:50:34;13.50;62.80
80274;DHT22;69576;51.902;-8.462;2024-01-15T14:53:03;13.50;62.80
80274;DHT22;69576;51.902;-8.462;2024-01-15T14:55:31;13.50;63.10
80274;DHT22;69576;51.902;-8.462;2024-01-15T14:57:59;13.50;62.20
80274;DHT22;69576;51.902;-8.462;2024-01-15T15:00:30;13.50;62.10
80274;DHT22;69576;51.902;-8.462;2024-01-15T15:02:56;13.50;61.70
80274;DHT22;69576;51.902;-8.462;2024-01-15T15:05:26;13.30;61.70
80274;DHT22;69576;51.902;-8.462;2024-01-15T15:07:52;13.30;62.50
80274;DHT22;69576;51.902;-8.462;2024-01-15T15:10:18;13.30;62.00
80274;DHT22;69576;51.902;-8.462;2024-01-15T15:12:46;13.30;62.80
80274;DHT22;69576;51.902;-8.462;2024-01-15T15:15:12;13.30;62.60
80274;DHT22;69576;51.902;-8.462;2024-01-15T15:17:38;13.30;62.80
80274;DHT22;69576;51.902;-8.462;2024-01-15T15:20:06;13.30;61.70
80274;DHT22;69576;51.902;-8.462;2024-01-15T15:22:34;13.20;62.20
80274;DHT22;69576;51.902;-8.462;2024-01-15T15:25:03;13.10;61.80
80274;DHT22;69576;51.902;-8.462;2024-01-15T15:27:31;13.10;61.60
80274;DHT22;69576;51.902;-8.462;2024-01-15T15:29:59;13.00;61.50
80274;DHT22;69576;51.902;-8.462;2024-01-15T15:32:25;13.00;61.50
80274;DHT22;69576;51.902;-8.462;2024-01-15T15:34:51;12.90;61.30
80274;DHT22;69576;51.902;-8.462;2024-01-15T15:37:17;12.80;61.70
80274;DHT22;69576;51.902;-8.462;2024-01-15T15:39:43;12.80;62.50
80274;DHT22;69576;51.902;-8.462;2024-01-15T15:42:11;12.80;63.20
80274;DHT22;69576;51.902;-8.462;2024-01-15T15:44:39;12.80;62.50
80274;DHT22;69576;51.902;-8.462;2024-01-15T15:47:12;12.80;62.10
80274;DHT22;69576;51.902;-8.462;2024-01-15T15:49:41;12.70;61.60